Time;durP1;ratioP1;P1;durP2;ratioP2;P2;SDS_P1;SDS_P2;PMS_P1;PMS_P2;Temp;Humidity;BMP_temperature;BMP_pressure;BME280_temperature;BME280_humidity;BME280_pressure;Samples;Min_cycle;Max_cycle;Signal;HPM_P1;HPM_P2
2022/04/17 00:02:16;;;;;;;4.07;3.67;;;10.60;50.70;;;;;;4981857;28;20470;-41
2022/04/17 00:04:42;;;;;;;4.60;3.50;;;10.50;50.90;;;;;;4980932;28;20470;-41
2022/04/17 00:07:09;;;;;;;3.60;3.30;;;10.50;51.20;;;;;;4979137;28;20841;-41
2022/04/17 00:09:36;;;;;;;4.07;3.70;;;10.50;50.20;;;;;;4979275;28;20467;-41
2022/04/17 00:12:03;;;;;;;4.13;3.70;;;10.40;51.00;;;;;;4983727;28;20466;-41
2022/04/17 00:14:30;;;;;;;3.93;3.20;;;10.40;51.20;;;;;;4978669;28;20847;-41
2022/04/17 00:16:56;;;;;;;3.90;3.60;;;10.40;51.20;;;;;;4977034;28;20498;-41
2022/04/17 00:19:23;;;;;;;4.40;3.57;;;10.40;51.00;;;;;;4980254;28;20463;-41
2022/04/17 00:21:50;;;;;;;3.50;3.20;;;10.40;51.40;;;;;;4977993;28;20472;-41
2022/04/17 00:24:17;;;;;;;3.67;3.40;;;10.30;51.30;;;;;;4981297;28;20462;-41
2022/04/17 00:26:44;;;;;;;3.40;3.10;;;10.30;51.60;;;;;;4978140;28;20472;-41
2022/04/17 00:29:10;;;;;;;3.03;2.83;;;10.30;51.40;;;;;;4980852;28;20464;-41
2022/04/17 00:31:37;;;;;;;5.20;3.47;;;10.20;51.50;;;;;;4979793;28;20513;-41
2022/04/17 00:34:04;;;;;;;4.10;3.70;;;10.20;51.70;;;;;;4982473;28;20472;-41
2022/04/17 00:36:31;;;;;;;3.40;3.10;;;10.20;51.80;;;;;;4982411;28;20466;-41
2022/04/17 00:38:58;;;;;;;4.80;3.67;;;10.20;51.90;;;;;;4984524;28;20473;-41
2022/04/17 00:41:24;;;;;;;4.53;3.80;;;10.10;52.00;;;;;;4981880;28;20549;-41
2022/04/17 00:43:51;;;;;;;3.77;3.47;;;10.10;51.40;;;;;;4985044;28;20458;-41
2022/04/17 00:46:18;;;;;;;5.00;3.50;;;10.10;51.90;;;;;;4985351;28;20465;-41
2022/04/17 00:48:45;;;;;;;3.43;2.93;;;10.10;51.20;;;;;;4983121;28;20497;-41
2022/04/17 00:51:15;;;;;;;6.30;3.50;;;10.10;50.90;;;;;;4967203;28;20821;-41
2022/04/17 00:53:44;;;;;;;4.73;3.60;;;10.10;50.80;;;;;;4981513;28;20841;-41
2022/04/17 00:56:11;;;;;;;6.87;3.53;;;10.10;51.60;;;;;;4981712;28;20462;-41
2022/04/17 00:58:39;;;;;;;4.97;3.20;;;10.00;51.70;;;;;;4984539;28;20703;-41
2022/04/17 01:01:06;;;;;;;4.07;2.80;;;10.00;52.20;;;;;;4985821;28;20454;-41
2022/04/17 01:03:32;;;;;;;3.47;2.40;;;10.00;52.10;;;;;;4980256;28;20582;-41
2022/04/17 01:06:00;;;;;;;3.67;3.47;;;10.00;52.10;;;;;;4981040;28;20472;-41
2022/04/17 01:08:28;;;;;;;5.30;3.77;;;9.90;52.10;;;;;;4986096;28;20967;-41
2022/04/17 01:10:54;;;;;;;2.90;2.70;;;9.90;51.60;;;;;;4984724;28;20471;-41
2022/04/17 01:13:22;;;;;;;3.27;2.97;;;9.90;51.40;;;;;;4979065;28;20461;-41
2022/04/17 01:15:49;;;;;;;3.77;2.90;;;9.90;51.60;;;;;;4978820;28;20485;-41
2022/04/17 01:18:16;;;;;;;4.17;2.93;;;9.90;51.70;;;;;;4965133;28;20491;-41
2022/04/17 01:20:43;;;;;;;3.10;2.80;;;9.80;50.80;;;;;;4979766;28;20472;-41
2022/04/17 01:28:40;;;;;;;3.30;3.10;;;9.80;52.40;;;;;;4980908;28;20467;-41
2022/04/17 01:31:07;;;;;;;4.30;2.60;;;9.70;52.70;;;;;;4985694;28;20485;-41
2022/04/17 01:33:39;;;;;;;3.50;3.30;;;9.70;52.80;;;;;;4983303;28;20492;-41
2022/04/17 01:36:05;;;;;;;4.97;2.90;;;9.60;52.90;;;;;;4985752;28;20577;-41
2022/04/17 01:38:32;;;;;;;2.63;2.43;;;9.60;53.30;;;;;;4982280;28;21003;-41
2022/04/17 01:40:59;;;;;;;2.87;2.67;;;9.50;53.50;;;;;;4983628;28;21191;-41
2022/04/17 01:43:25;;;;;;;8.63;2.63;;;9.50;53.60;;;;;;4979366;28;20456;-41
2022/04/17 01:45:52;;;;;;;2.77;2.53;;;9.50;53.60;;;;;;4982251;28;20496;-41
2022/04/17 01:48:19;;;;;;;3.27;2.97;;;9.40;53.40;;;;;;4980655;28;20461;-41
2022/04/17 01:50:46;;;;;;;3.50;3.20;;;9.40;53.90;;;;;;4980264;28;20462;-41
2022/04/17 01:53:13;;;;;;;3.23;3.03;;;9.40;53.90;;;;;;4981013;28;20477;-41
2022/04/17 01:55:40;;;;;;;3.37;3.07;;;9.30;53.50;;;;;;4981100;28;20815;-41
2022/04/17 01:58:07;;;;;;;3.20;3.00;;;9.30;54.20;;;;;;4978796;28;20555;-41
2022/04/17 02:00:33;;;;;;;3.50;2.50;;;9.30;54.30;;;;;;4964583;28;20455;-41
2022/04/17 02:03:00;;;;;;;3.53;3.17;;;9.30;54.60;;;;;;4964899;28;20830;-41
2022/04/17 02:05:27;;;;;;;3.60;3.30;;;9.30;54.40;;;;;;4977418;28;20457;-41
2022/04/17 02:07:54;;;;;;;3.00;2.70;;;9.20;54.30;;;;;;4980451;28;20503;-41
2022/04/17 02:10:21;;;;;;;3.30;3.00;;;9.10;54.50;;;;;;4967389;28;20476;-41
2022/04/17 02:12:48;;;;;;;4.97;4.67;;;9.10;54.20;;;;;;4981849;28;20586;-41
2022/04/17 02:15:15;;;;;;;3.93;3.50;;;9.10;54.80;;;;;;4969259;28;20975;-41
2022/04/17 02:17:42;;;;;;;3.20;2.90;;;9.00;55.10;;;;;;4981181;28;20493;-41
2022/04/17 02:20:11;;;;;;;4.80;3.43;;;9.00;54.50;;;;;;4982585;28;20469;-41
2022/04/17 02:22:38;;;;;;;3.77;3.40;;;9.00;54.60;;;;;;4979088;28;21030;-41
2022/04/17 02:25:05;;;;;;;4.83;3.53;;;8.90;54.80;;;;;;4966369;28;20469;-41
2022/04/17 02:27:32;;;;;;;5.13;2.80;;;8.90;55.60;;;;;;4976884;28;20470;-41
2022/04/17 02:29:59;;;;;;;3.70;3.37;;;8.90;56.60;;;;;;4963534;28;20472;-43
2022/04/17 02:32:26;;;;;;;4.57;3.67;;;8.80;56.30;;;;;;4956013;28;20492;-43
2022/04/17 02:34:53;;;;;;;3.67;3.37;;;8.80;56.30;;;;;;4980401;28;20467;-43
2022/04/17 02:37:21;;;;;;;5.13;3.70;;;8.80;56.50;;;;;;4963903;28;20482;-43
2022/04/17 02:39:48;;;;;;;4.00;3.70;;;8.70;56.30;;;;;;4980639;28;20530;-43
2022/04/17 02:42:15;;;;;;;5.93;4.30;;;8.70;56.30;;;;;;4983204;28;20464;-43
2022/04/17 02:44:41;;;;;;;4.40;3.90;;;8.60;56.40;;;;;;4964369;28;20472;-43
2022/04/17 02:49:54;;;;;;;6.23;4.37;;;8.60;56.90;;;;;;4981904;28;20501;-41
2022/04/17 02:52:21;;;;;;;4.57;4.17;;;8.50;57.40;;;;;;4982915;28;20474;-41
2022/04/17 02:54:48;;;;;;;5.00;4.50;;;8.50;57.70;;;;;;4982541;28;20454;-41
2022/04/17 02:57:14;;;;;;;5.57;4.40;;;8.60;57.70;;;;;;4981710;28;20467;-41
2022/04/17 02:59:41;;;;;;;5.70;4.10;;;8.50;57.50;;;;;;4981578;28;20462;-41
2022/04/17 03:07:38;;;;;;;3.60;3.30;;;8.50;57.60;;;;;;4980767;28;21027;-41
2022/04/17 03:10:05;;;;;;;3.77;3.40;;;8.40;57.40;;;;;;4977525;28;21013;-41
2022/04/17 03:12:35;;;;;;;4.30;3.60;;;8.40;57.70;;;;;;4980797;28;20559;-40
2022/04/17 03:15:02;;;;;;;4.00;3.67;;;8.50;57.00;;;;;;4981326;28;20523;-40
2022/04/17 03:17:29;;;;;;;4.57;3.73;;;8.50;57.40;;;;;;4981187;28;20500;-40
2022/04/17 03:19:55;;;;;;;3.30;3.10;;;8.50;56.90;;;;;;4980001;28;20477;-40
2022/04/17 03:22:25;;;;;;;3.50;3.20;;;8.50;57.20;;;;;;4978652;28;20967;-40
2022/04/17 03:24:52;;;;;;;3.40;3.10;;;8.50;57.30;;;;;;4981417;28;20520;-41
2022/04/17 03:27:19;;;;;;;4.47;3.50;;;8.50;57.50;;;;;;4982264;28;21141;-41
2022/04/17 03:29:46;;;;;;;3.90;3.60;;;8.40;57.70;;;;;;4978351;28;20485;-40
2022/04/17 03:32:13;;;;;;;3.70;3.07;;;8.40;58.00;;;;;;4980814;28;20478;-40
2022/04/17 03:34:39;;;;;;;4.07;3.77;;;8.40;57.90;;;;;;4980114;28;20967;-40
2022/04/17 03:37:06;;;;;;;5.20;3.80;;;8.40;57.80;;;;;;4981606;28;20835;-40
2022/04/17 03:39:33;;;;;;;3.10;2.70;;;8.40;57.80;;;;;;4982129;28;20517;-40
2022/04/17 03:42:00;;;;;;;4.20;3.80;;;8.30;58.20;;;;;;4981926;28;20693;-40
2022/04/17 03:44:27;;;;;;;7.10;4.17;;;8.30;58.20;;;;;;4977324;28;20478;-40
2022/04/17 03:46:53;;;;;;;5.27;3.40;;;8.30;58.00;;;;;;4982920;28;20459;-40
2022/04/17 03:49:20;;;;;;;4.00;3.40;;;8.30;57.90;;;;;;4981705;28;20470;-40
2022/04/17 03:51:47;;;;;;;3.40;3.10;;;8.30;58.50;;;;;;4983044;28;20462;-39
2022/04/17 03:54:14;;;;;;;3.37;3.07;;;8.30;58.30;;;;;;4981993;28;20587;-40
2022/04/17 03:56:40;;;;;;;5.33;3.33;;;8.30;58.40;;;;;;4979894;28;20829;-40
2022/04/17 03:59:08;;;;;;;4.13;2.77;;;8.30;58.60;;;;;;4979047;28;20500;-40
2022/04/17 04:01:35;;;;;;;4.23;2.97;;;8.30;58.50;;;;;;4968570;28;20471;-40
2022/04/17 04:04:02;;;;;;;3.40;3.10;;;8.30;56.90;;;;;;4979902;28;20466;-40
2022/04/17 04:06:29;;;;;;;4.70;2.83;;;8.30;57.90;;;;;;4964969;28;20974;-40
2022/04/17 04:08:55;;;;;;;3.33;2.60;;;8.40;57.00;;;;;;4968305;28;20469;-40
2022/04/17 04:11:22;;;;;;;2.50;2.30;;;8.40;56.50;;;;;;4980410;28;20979;-40
2022/04/17 04:13:49;;;;;;;3.17;2.70;;;8.40;56.60;;;;;;4984536;28;20459;-40
2022/04/17 04:16:15;;;;;;;3.63;3.10;;;8.40;56.40;;;;;;4984570;28;20483;-40
2022/04/17 04:18:42;;;;;;;3.43;3.13;;;8.40;56.20;;;;;;4985131;28;20880;-40
2022/04/17 04:21:09;;;;;;;2.90;2.53;;;8.40;56.80;;;;;;4986171;28;20458;-40
2022/04/17 04:23:36;;;;;;;3.10;2.23;;;8.40;56.90;;;;;;4981889;28;20829;-40
2022/04/17 04:26:04;;;;;;;3.33;3.10;;;8.40;56.60;;;;;;4966414;28;20474;-40
2022/04/17 04:28:36;;;;;;;2.53;2.20;;;8.40;56.40;;;;;;4983593;28;20462;-41
2022/04/17 04:31:09;;;;;;;2.70;2.50;;;8.40;56.50;;;;;;4982272;28;20587;-40
2022/04/17 04:33:38;;;;;;;3.40;2.60;;;8.40;58.00;;;;;;4983771;28;20487;-40
2022/04/17 04:36:09;;;;;;;3.03;2.40;;;8.40;58.30;;;;;;4984232;28;20465;-41
2022/04/17 04:38:36;;;;;;;4.67;2.50;;;8.40;58.10;;;;;;4985360;28;20496;-41
2022/04/17 04:41:03;;;;;;;2.30;2.20;;;8.30;58.40;;;;;;4984725;28;20456;-41
2022/04/17 04:43:31;;;;;;;3.07;2.60;;;8.30;57.80;;;;;;4968578;28;20467;-41
2022/04/17 04:46:07;;;;;;;2.83;2.33;;;8.40;57.20;;;;;;4960794;28;20462;-41
2022/04/17 04:51:25;;;;;;;3.10;2.80;;;8.30;58.90;;;;;;4982927;28;20458;-41
2022/04/17 04:53:54;;;;;;;2.70;2.10;;;8.30;58.90;;;;;;4981965;28;21047;-41
2022/04/17 04:56:21;;;;;;;4.27;2.60;;;8.30;59.10;;;;;;4983758;28;20461;-40
2022/04/17 04:58:48;;;;;;;2.90;2.60;;;8.30;59.00;;;;;;4983469;28;20490;-40
2022/04/17 05:01:15;;;;;;;3.20;2.67;;;8.30;59.20;;;;;;4982504;28;21076;-40
2022/04/17 05:03:42;;;;;;;2.67;2.47;;;8.30;58.40;;;;;;4984859;28;20830;-41
2022/04/17 05:06:09;;;;;;;5.10;2.97;;;8.20;59.00;;;;;;4982366;28;20455;-40
2022/04/17 05:08:36;;;;;;;2.53;2.20;;;8.20;59.10;;;;;;4980554;28;20978;-40
2022/04/17 05:11:03;;;;;;;3.43;2.60;;;8.20;59.50;;;;;;4983260;28;20550;-40
2022/04/17 05:13:30;;;;;;;3.30;3.00;;;8.20;59.00;;;;;;4966308;28;20466;-41
2022/04/17 05:15:57;;;;;;;3.20;3.00;;;8.30;59.50;;;;;;4970775;28;20468;-41
2022/04/17 05:18:29;;;;;;;3.60;2.90;;;8.20;59.90;;;;;;4983261;28;20706;-41
2022/04/17 05:20:56;;;;;;;3.10;2.80;;;8.20;59.90;;;;;;4981237;28;20455;-41
2022/04/17 05:23:26;;;;;;;2.80;2.40;;;8.20;59.90;;;;;;4967983;28;20462;-41
2022/04/17 05:25:54;;;;;;;4.27;2.53;;;8.30;59.70;;;;;;4984248;28;20458;-41
2022/04/17 05:28:22;;;;;;;2.80;2.60;;;8.30;60.00;;;;;;4987959;28;20576;-41
2022/04/17 05:30:49;;;;;;;4.40;3.00;;;8.30;60.10;;;;;;4983430;28;21034;-41
2022/04/17 05:33:20;;;;;;;2.80;2.60;;;8.30;59.70;;;;;;4977541;28;20459;-41
2022/04/17 05:35:50;;;;;;;2.63;2.43;;;8.30;59.00;;;;;;4965641;28;20473;-41
2022/04/17 05:38:18;;;;;;;4.10;2.40;;;8.40;58.60;;;;;;4982243;28;21131;-41
2022/04/17 05:40:49;;;;;;;2.90;2.70;;;8.40;59.20;;;;;;4982253;28;20446;-41
2022/04/17 05:43:17;;;;;;;5.83;2.63;;;8.40;58.70;;;;;;4982430;28;20465;-41
2022/04/17 05:45:45;;;;;;;3.93;2.60;;;8.50;57.70;;;;;;4984396;28;20465;-41
2022/04/17 05:48:13;;;;;;;3.27;2.50;;;8.50;58.10;;;;;;4981013;28;20465;-41
2022/04/17 05:50:41;;;;;;;2.77;2.57;;;8.50;58.40;;;;;;4982547;28;20477;-41
2022/04/17 05:53:08;;;;;;;3.33;2.70;;;8.60;59.10;;;;;;4980746;28;20536;-41
2022/04/17 05:55:36;;;;;;;3.93;3.07;;;8.60;59.30;;;;;;4988319;28;20458;-41
2022/04/17 05:58:03;;;;;;;2.83;2.63;;;8.60;58.30;;;;;;4980000;28;20453;-41
2022/04/17 06:00:30;;;;;;;3.83;2.90;;;8.70;57.10;;;;;;4962441;28;20458;-41
2022/04/17 06:02:57;;;;;;;4.40;2.70;;;8.70;57.50;;;;;;4981137;28;20462;-41
2022/04/17 06:05:24;;;;;;;4.23;3.00;;;8.80;58.60;;;;;;4979057;28;20469;-41
2022/04/17 06:07:50;;;;;;;3.10;2.80;;;8.90;57.50;;;;;;4981027;28;20475;-41
2022/04/17 06:10:17;;;;;;;2.83;2.63;;;9.00;57.30;;;;;;4978836;28;21056;-41
2022/04/17 06:12:44;;;;;;;4.37;3.30;;;9.00;56.60;;;;;;4981805;28;20454;-42
2022/04/17 06:15:11;;;;;;;3.53;2.73;;;9.00;57.40;;;;;;4980587;28;20470;-42
2022/04/17 06:17:39;;;;;;;4.03;2.87;;;9.10;57.80;;;;;;4980738;28;20463;-41
2022/04/17 06:20:11;;;;;;;3.73;2.83;;;9.10;57.80;;;;;;4979642;28;20512;-40
2022/04/17 06:22:38;;;;;;;4.43;2.90;;;9.10;57.60;;;;;;4983622;28;20921;-41
2022/04/17 06:25:15;;;;;;;3.60;3.30;;;9.10;55.40;;;;;;4979979;28;20474;-41
2022/04/17 06:27:47;;;;;;;4.50;3.03;;;9.10;55.50;;;;;;4979676;28;20461;-41
2022/04/17 06:30:16;;;;;;;4.03;3.70;;;9.20;55.50;;;;;;4979488;28;20468;-41
2022/04/17 06:32:44;;;;;;;3.40;3.10;;;9.30;55.30;;;;;;4977244;28;20497;-41
2022/04/17 06:35:12;;;;;;;3.27;2.70;;;9.30;54.90;;;;;;4981926;28;20880;-41
2022/04/17 06:37:56;;;;;;;4.23;2.50;;;9.40;55.70;;;;;;4962822;28;20462;-41
2022/04/17 06:40:24;;;;;;;3.73;2.50;;;9.50;54.60;;;;;;4978596;28;21056;-41
2022/04/17 06:42:53;;;;;;;4.73;3.03;;;9.50;54.30;;;;;;4977056;28;20469;-41
2022/04/17 06:45:20;;;;;;;2.70;2.50;;;9.60;54.30;;;;;;4961422;28;20466;-41
2022/04/17 06:47:47;;;;;;;3.90;2.33;;;9.70;53.80;;;;;;4980525;28;20459;-41
2022/04/17 06:50:15;;;;;;;3.27;2.70;;;9.80;53.60;;;;;;4982633;28;20462;-41
2022/04/17 06:52:42;;;;;;;3.10;2.80;;;9.90;53.60;;;;;;4978517;28;20691;-41
2022/04/17 06:55:11;;;;;;;3.30;2.70;;;9.90;53.00;;;;;;4982322;28;20931;-41
2022/04/17 06:57:44;;;;;;;3.33;3.03;;;9.90;52.60;;;;;;4978881;28;20740;-41
2022/04/17 07:00:11;;;;;;;3.30;3.00;;;9.90;52.80;;;;;;4971303;28;20485;-41
2022/04/17 07:02:42;;;;;;;2.30;2.10;;;10.00;53.90;;;;;;4978811;28;20515;-40
2022/04/17 07:05:10;;;;;;;2.80;2.60;;;10.20;55.00;;;;;;4980897;28;21033;-40
2022/04/17 07:07:37;;;;;;;3.47;2.90;;;10.20;54.60;;;;;;4978574;28;20558;-40
2022/04/17 07:10:05;;;;;;;4.20;2.87;;;10.40;53.30;;;;;;4978519;28;20462;-41
2022/04/17 07:12:32;;;;;;;2.60;2.40;;;10.50;53.30;;;;;;4980544;28;20845;-40
2022/04/17 07:15:01;;;;;;;3.60;2.73;;;10.60;52.20;;;;;;4980668;28;20477;-40
2022/04/17 07:17:36;;;;;;;3.60;2.83;;;10.70;51.90;;;;;;4980511;28;20463;-40
2022/04/17 07:20:07;;;;;;;3.10;2.80;;;10.80;51.30;;;;;;4978950;28;20498;-40
2022/04/17 07:22:35;;;;;;;2.93;2.47;;;10.80;51.10;;;;;;4959752;28;20832;-40
2022/04/17 07:25:04;;;;;;;3.97;2.60;;;11.00;51.10;;;;;;4978644;28;20463;-40
2022/04/17 07:27:42;;;;;;;2.90;2.30;;;11.10;50.80;;;;;;4980686;28;20461;-40
2022/04/17 07:30:17;;;;;;;3.37;3.07;;;11.20;50.90;;;;;;4979219;28;20477;-41
2022/04/17 07:32:50;;;;;;;4.23;3.23;;;11.40;51.60;;;;;;4981088;28;21093;-40
2022/04/17 07:35:18;;;;;;;3.33;2.70;;;11.60;50.20;;;;;;4981954;28;20494;-40
2022/04/17 07:37:49;;;;;;;5.03;3.00;;;11.70;49.60;;;;;;4982866;28;20858;-40
2022/04/17 07:40:21;;;;;;;3.80;2.80;;;11.90;49.80;;;;;;4980953;28;20509;-40
2022/04/17 07:42:50;;;;;;;4.03;2.73;;;12.10;50.10;;;;;;4987660;28;20454;-41
2022/04/17 07:45:17;;;;;;;2.57;2.37;;;12.30;49.30;;;;;;4987902;28;20466;-40
2022/04/17 07:47:45;;;;;;;7.00;2.87;;;12.40;50.30;;;;;;4984473;28;20500;-40
2022/04/17 07:50:14;;;;;;;3.03;2.70;;;12.60;50.50;;;;;;4985257;28;20474;-40
2022/04/17 07:52:42;;;;;;;3.50;2.40;;;12.80;50.20;;;;;;4986173;28;20465;-41
2022/04/17 07:55:14;;;;;;;3.67;3.33;;;13.00;47.60;;;;;;4978981;28;20466;-41
2022/04/17 07:57:59;;;;;;;3.43;2.63;;;13.10;46.90;;;;;;4990350;28;20902;-41
2022/04/17 08:00:32;;;;;;;2.97;2.77;;;13.30;47.60;;;;;;4988363;28;20500;-41
2022/04/17 08:06:09;;;;;;;3.03;2.50;;;13.60;46.00;;;;;;4985698;28;20497;-41
2022/04/17 08:08:37;;;;;;;3.30;3.00;;;13.80;46.00;;;;;;4982287;28;20461;-41
2022/04/17 08:11:04;;;;;;;2.90;2.60;;;14.00;45.30;;;;;;4989847;28;20467;-41
2022/04/17 08:13:31;;;;;;;2.60;2.40;;;14.30;45.60;;;;;;4988181;28;20445;-41
2022/04/17 08:15:59;;;;;;;3.33;3.07;;;14.50;45.30;;;;;;4985690;28;20487;-41
2022/04/17 08:18:26;;;;;;;3.13;2.90;;;14.70;45.10;;;;;;4987247;28;20455;-41
2022/04/17 08:20:53;;;;;;;3.13;2.83;;;14.90;44.20;;;;;;4969842;28;20494;-41
2022/04/17 08:23:19;;;;;;;2.93;2.73;;;15.10;44.20;;;;;;4985153;28;20483;-41
2022/04/17 08:25:49;;;;;;;3.43;3.23;;;15.30;44.00;;;;;;4987223;28;20465;-41
2022/04/17 08:28:15;;;;;;;3.70;2.73;;;15.40;44.00;;;;;;4985349;28;20462;-41
2022/04/17 08:30:42;;;;;;;4.73;2.83;;;15.60;41.70;;;;;;4988568;28;20834;-42
2022/04/17 08:33:09;;;;;;;3.00;2.60;;;15.70;41.70;;;;;;4985506;28;20462;-42
2022/04/17 08:35:36;;;;;;;3.30;3.00;;;15.90;41.80;;;;;;4985266;28;20462;-42
2022/04/17 08:38:04;;;;;;;3.80;2.90;;;16.10;41.50;;;;;;4969859;28;20601;-42
2022/04/17 08:40:31;;;;;;;2.97;2.77;;;16.30;41.00;;;;;;4988825;28;21016;-42
2022/04/17 08:42:59;;;;;;;3.27;2.40;;;16.50;40.10;;;;;;4967233;28;20507;-41
2022/04/17 08:45:26;;;;;;;3.30;3.00;;;16.60;40.10;;;;;;4982362;28;20558;-42
2022/04/17 08:47:54;;;;;;;3.80;3.07;;;16.80;39.80;;;;;;4982884;28;20474;-42
2022/04/17 08:50:22;;;;;;;2.43;2.10;;;16.90;40.20;;;;;;4983721;28;20879;-42
2022/04/17 08:52:51;;;;;;;3.80;2.40;;;17.10;39.90;;;;;;4970385;28;20469;-42
2022/04/17 08:55:18;;;;;;;3.20;2.30;;;17.30;40.00;;;;;;4985294;28;20468;-42
2022/04/17 08:57:44;;;;;;;4.90;2.00;;;17.50;38.00;;;;;;4984997;28;20893;-42
2022/04/17 09:00:16;;;;;;;3.77;2.33;;;17.60;36.90;;;;;;4984214;28;20485;-42
2022/04/17 09:02:44;;;;;;;3.33;2.47;;;17.70;37.40;;;;;;4983157;28;20453;-44
2022/04/17 09:05:12;;;;;;;3.40;2.20;;;17.80;36.20;;;;;;4986167;28;20466;-41
2022/04/17 09:07:40;;;;;;;2.30;2.10;;;18.00;35.90;;;;;;4969197;28;21077;-41
2022/04/17 09:10:08;;;;;;;2.57;2.37;;;18.20;35.50;;;;;;4973455;28;21013;-41
2022/04/17 09:12:35;;;;;;;2.43;2.20;;;18.40;35.20;;;;;;4979837;28;20462;-41
2022/04/17 09:15:02;;;;;;;5.07;2.43;;;18.60;34.80;;;;;;4965168;28;21088;-42
2022/04/17 09:17:36;;;;;;;3.00;2.23;;;18.90;34.30;;;;;;4984353;28;20466;-41
2022/04/17 09:20:04;;;;;;;3.27;1.93;;;19.00;34.00;;;;;;4985803;28;20512;-41
2022/04/17 09:22:50;;;;;;;2.43;2.20;;;19.20;33.90;;;;;;4968621;28;20464;-42
2022/04/17 09:25:17;;;;;;;2.20;1.67;;;19.60;33.50;;;;;;4983134;28;20895;-42
2022/04/17 09:27:59;;;;;;;1.80;1.67;;;19.90;32.90;;;;;;4981329;28;20986;-41
2022/04/17 09:30:40;;;;;;;4.50;2.17;;;19.80;32.40;;;;;;4980373;28;20464;-41
2022/04/17 09:33:12;;;;;;;2.70;2.17;;;19.70;32.10;;;;;;4982990;28;20475;-41
2022/04/17 09:35:40;;;;;;;2.40;2.20;;;19.70;32.10;;;;;;4982622;28;20849;-42
2022/04/17 09:38:09;;;;;;;2.17;1.93;;;19.60;32.50;;;;;;4981227;28;20467;-42
2022/04/17 09:40:37;;;;;;;3.23;2.70;;;19.70;32.40;;;;;;4961376;28;20503;-42
2022/04/17 09:43:16;;;;;;;2.47;1.97;;;19.90;32.10;;;;;;4982786;28;20708;-41
2022/04/17 09:46:00;;;;;;;5.90;2.60;;;19.90;33.20;;;;;;4984746;28;20460;-41
2022/04/17 09:48:39;;;;;;;3.13;1.77;;;20.20;32.30;;;;;;4986548;28;21065;-41
2022/04/17 09:51:26;;;;;;;3.37;2.40;;;20.40;32.00;;;;;;4984939;28;20477;-41
2022/04/17 09:53:55;;;;;;;4.00;2.50;;;20.70;31.70;;;;;;4978710;28;20488;-42
2022/04/17 09:56:33;;;;;;;1.90;1.77;;;21.00;31.40;;;;;;4981578;28;20487;-42
2022/04/17 09:59:13;;;;;;;2.17;1.97;;;21.20;32.00;;;;;;4978886;28;20492;-42
2022/04/17 10:01:40;;;;;;;2.63;2.00;;;21.30;30.80;;;;;;4978433;28;20476;-42
2022/04/17 10:04:07;;;;;;;1.80;1.70;;;21.40;30.30;;;;;;4979687;28;20471;-42
2022/04/17 10:06:36;;;;;;;3.27;1.93;;;21.40;30.60;;;;;;4976716;28;20593;-41
2022/04/17 10:09:04;;;;;;;2.67;2.00;;;21.60;30.40;;;;;;4980395;28;20841;-41
2022/04/17 10:11:32;;;;;;;2.60;1.97;;;21.70;29.80;;;;;;4983232;28;20449;-42
2022/04/17 10:13:59;;;;;;;3.23;1.70;;;21.80;29.40;;;;;;4967313;28;20453;-42
2022/04/17 10:16:30;;;;;;;2.40;1.80;;;21.90;29.10;;;;;;4972448;28;20813;-42
2022/04/17 10:19:04;;;;;;;3.93;1.80;;;22.00;29.30;;;;;;4980025;28;20484;-41
2022/04/17 10:21:35;;;;;;;2.67;1.97;;;22.30;29.70;;;;;;4983598;28;20449;-41
2022/04/17 10:24:04;;;;;;;2.03;1.93;;;22.40;29.20;;;;;;4982594;28;20472;-42
2022/04/17 10:26:38;;;;;;;2.43;1.63;;;22.40;28.70;;;;;;4982531;28;20500;-42
2022/04/17 10:29:15;;;;;;;3.03;2.00;;;22.30;29.20;;;;;;4981706;28;20466;-42
2022/04/17 10:32:20;;;;;;;3.27;1.87;;;22.70;29.40;;;;;;4981696;28;20481;-42
2022/04/17 10:35:16;;;;;;;2.70;2.03;;;22.80;29.20;;;;;;4979564;28;20471;-42
2022/04/17 10:38:12;;;;;;;5.90;2.40;;;23.10;29.20;;;;;;4981200;28;21403;-41
2022/04/17 10:40:40;;;;;;;3.37;2.47;;;23.30;30.00;;;;;;4979969;28;20498;-41
2022/04/17 10:43:06;;;;;;;5.33;2.70;;;23.40;29.20;;;;;;4987227;28;20469;-41
2022/04/17 10:46:05;;;;;;;2.67;1.87;;;23.40;29.10;;;;;;4983281;28;20449;-41
2022/04/17 10:48:50;;;;;;;2.20;2.00;;;23.50;29.30;;;;;;4978951;28;20467;-41
2022/04/17 10:51:27;;;;;;;1.90;1.70;;;23.50;27.40;;;;;;4982015;28;20474;-41
2022/04/17 10:54:11;;;;;;;2.80;2.07;;;23.30;27.40;;;;;;4965976;28;20513;-42
2022/04/17 10:56:56;;;;;;;2.40;2.00;;;23.00;27.80;;;;;;4979380;28;20821;-41
2022/04/17 10:59:31;;;;;;;2.80;2.13;;;22.80;27.80;;;;;;4979172;28;20496;-41
2022/04/17 11:02:05;;;;;;;3.43;1.83;;;22.60;28.10;;;;;;4963846;28;20473;-41
2022/04/17 11:04:50;;;;;;;2.40;1.87;;;22.60;28.40;;;;;;4984623;28;20472;-41
2022/04/17 11:07:16;;;;;;;2.07;1.87;;;22.70;27.70;;;;;;4982416;28;20461;-42
2022/04/17 11:09:46;;;;;;;1.60;1.50;;;22.60;27.90;;;;;;4971600;28;20520;-42
2022/04/17 11:12:18;;;;;;;3.10;2.13;;;22.60;28.20;;;;;;4981841;28;20465;-41
2022/04/17 11:15:17;;;;;;;3.43;2.33;;;22.60;28.30;;;;;;4980925;28;20467;-42
2022/04/17 11:17:48;;;;;;;1.83;1.73;;;22.40;28.60;;;;;;4980650;28;20993;-43
2022/04/17 11:20:16;;;;;;;3.13;2.40;;;22.10;28.40;;;;;;4977334;28;20502;-42
2022/04/17 11:22:43;;;;;;;2.53;2.33;;;21.90;28.90;;;;;;4964465;28;20472;-42
2022/04/17 11:25:12;;;;;;;2.37;2.17;;;21.70;29.40;;;;;;4982653;28;20461;-42
2022/04/17 11:27:51;;;;;;;2.10;1.70;;;21.40;29.40;;;;;;4980374;28;20486;-41
2022/04/17 11:30:38;;;;;;;2.03;1.50;;;21.20;30.60;;;;;;4978811;28;20471;-42
2022/04/17 11:33:06;;;;;;;3.47;2.00;;;20.90;29.10;;;;;;4978691;28;20488;-42
2022/04/17 11:35:35;;;;;;;2.93;2.60;;;20.80;29.60;;;;;;4979178;28;21053;-42
2022/04/17 11:38:05;;;;;;;4.60;2.80;;;20.80;30.30;;;;;;4980430;28;20486;-42
2022/04/17 11:40:37;;;;;;;2.23;2.03;;;20.80;31.00;;;;;;4976438;28;21081;-41
2022/04/17 11:43:15;;;;;;;2.63;2.43;;;20.70;30.90;;;;;;4988250;28;20461;-41
2022/04/17 11:45:46;;;;;;;2.70;2.50;;;20.80;31.60;;;;;;4977051;28;20551;-41
2022/04/17 11:48:15;;;;;;;2.50;1.97;;;20.90;32.70;;;;;;4967158;28;20458;-42
2022/04/17 11:50:42;;;;;;;4.00;2.50;;;20.90;33.30;;;;;;4978533;28;20481;-42
2022/04/17 11:53:15;;;;;;;4.70;2.00;;;20.90;31.90;;;;;;4970013;28;20988;-42
2022/04/17 11:55:43;;;;;;;2.20;2.00;;;20.80;31.50;;;;;;4980049;28;20799;-41
2022/04/17 11:58:12;;;;;;;2.70;2.40;;;20.80;33.70;;;;;;4977154;28;23434;-41
2022/04/17 12:00:40;;;;;;;2.90;2.20;;;20.80;33.50;;;;;;4977825;28;20579;-41
2022/04/17 12:03:08;;;;;;;3.23;2.93;;;20.70;32.70;;;;;;4978911;28;20471;-41
2022/04/17 12:05:37;;;;;;;2.83;1.77;;;20.30;32.40;;;;;;4979504;28;20464;-41
2022/04/17 12:08:11;;;;;;;2.60;2.40;;;20.10;32.30;;;;;;4977880;28;20466;-41
2022/04/17 12:10:41;;;;;;;1.60;1.50;;;20.00;32.90;;;;;;4963031;28;20463;-41
2022/04/17 12:13:19;;;;;;;2.67;2.30;;;19.70;32.10;;;;;;4980429;28;20466;-42
2022/04/17 12:15:57;;;;;;;2.70;1.90;;;19.70;33.10;;;;;;4979922;28;20499;-41
2022/04/17 12:18:24;;;;;;;2.50;2.30;;;19.80;32.40;;;;;;4978613;28;20481;-42
2022/04/17 12:21:02;;;;;;;3.03;2.53;;;19.90;34.70;;;;;;4980171;28;20498;-42
2022/04/17 12:23:32;;;;;;;6.60;3.00;;;20.00;32.60;;;;;;4979791;28;20850;-42
2022/04/17 12:26:08;;;;;;;5.87;3.27;;;20.10;33.40;;;;;;4980822;28;20496;-42
2022/04/17 12:28:41;;;;;;;3.20;2.37;;;20.20;32.70;;;;;;4981533;28;20499;-42
2022/04/17 12:31:08;;;;;;;2.63;2.43;;;20.20;32.30;;;;;;4980962;28;20577;-42
2022/04/17 12:33:36;;;;;;;4.27;2.53;;;20.30;32.90;;;;;;4981508;28;20613;-42
2022/04/17 12:36:12;;;;;;;4.20;2.63;;;20.20;32.20;;;;;;4982618;28;20484;-42
2022/04/17 12:38:43;;;;;;;2.40;2.20;;;20.30;34.70;;;;;;4980718;28;20567;-42
2022/04/17 12:41:22;;;;;;;2.13;2.03;;;20.30;33.30;;;;;;4979801;28;20514;-42
2022/04/17 12:43:49;;;;;;;3.57;2.20;;;20.40;33.00;;;;;;4979313;28;20468;-42
2022/04/17 12:46:32;;;;;;;3.27;2.00;;;20.40;34.80;;;;;;4982615;28;20520;-42
2022/04/17 12:49:17;;;;;;;2.40;2.20;;;20.40;35.20;;;;;;4986125;28;20570;-43
2022/04/17 12:51:55;;;;;;;2.67;2.30;;;20.40;33.50;;;;;;4978386;28;20475;-42
2022/04/17 12:54:22;;;;;;;2.20;2.00;;;20.40;33.30;;;;;;4982846;28;20492;-42
2022/04/17 12:56:59;;;;;;;2.23;2.00;;;20.20;32.70;;;;;;4982746;28;20465;-42
2022/04/17 12:59:27;;;;;;;2.83;2.17;;;20.20;33.00;;;;;;4982081;28;20484;-42
2022/04/17 13:01:53;;;;;;;2.07;1.87;;;20.30;35.00;;;;;;4984273;28;21052;-42
2022/04/17 13:04:21;;;;;;;3.40;1.90;;;20.40;35.30;;;;;;4986802;28;20500;-42
2022/04/17 13:06:52;;;;;;;4.10;1.87;;;20.40;33.10;;;;;;4981935;28;20980;-42
2022/04/17 13:09:21;;;;;;;3.33;2.13;;;20.40;33.10;;;;;;4978579;28;20468;-42
2022/04/17 13:11:48;;;;;;;2.17;1.93;;;20.40;33.40;;;;;;4981053;28;20472;-42
2022/04/17 13:14:15;;;;;;;1.60;1.50;;;20.50;33.90;;;;;;4984251;28;20476;-42
2022/04/17 13:16:52;;;;;;;2.27;1.23;;;20.50;32.00;;;;;;4980142;28;20457;-42
2022/04/17 13:19:22;;;;;;;2.07;1.47;;;20.50;30.30;;;;;;4981405;28;20461;-41
2022/04/17 13:21:51;;;;;;;3.40;1.47;;;20.50;29.50;;;;;;4982586;28;20555;-42
2022/04/17 13:24:22;;;;;;;1.87;1.60;;;20.50;29.80;;;;;;4980841;28;20461;-42